Time;durP1;ratioP1;P1;durP2;ratioP2;P2;SDS_P1;SDS_P2;PMS_P1;PMS_P2;Temp;Humidity;BMP_temperature;BMP_pressure;BME280_temperature;BME280_humidity;BME280_pressure;Samples;Min_cycle;Max_cycle;Signal;HPM_P1;HPM_P2
2022/12/10 00:01:30;;;;;;;35.33;19.13;;;-1.60;99.90;;;;;;4980793;28;20053;-63
2022/12/10 00:03:57;;;;;;;42.60;24.67;;;-1.60;99.90;;;;;;4981671;28;20042;-66
2022/12/10 00:06:25;;;;;;;44.30;25.75;;;-1.50;99.90;;;;;;4972032;28;20093;-64
2022/12/10 00:08:51;;;;;;;43.42;24.30;;;-1.80;99.90;;;;;;4964639;28;20038;-66
2022/12/10 00:11:19;;;;;;;45.78;25.80;;;-1.60;99.90;;;;;;4964550;28;20035;-63
2022/12/10 00:13:45;;;;;;;50.15;27.75;;;-1.70;99.90;;;;;;4964418;28;20047;-63
2022/12/10 00:16:13;;;;;;;42.60;23.98;;;-1.70;99.90;;;;;;4978589;28;20549;-64
2022/12/10 00:18:39;;;;;;;37.55;21.35;;;-1.90;99.90;;;;;;4978062;28;20139;-59
2022/12/10 00:21:11;;;;;;;43.33;24.13;;;-1.70;99.90;;;;;;4963789;28;20050;-60
2022/12/10 00:23:38;;;;;;;43.45;24.10;;;-1.90;99.90;;;;;;4964268;28;20054;-63
2022/12/10 00:26:13;;;;;;;36.85;22.00;;;-1.80;99.90;;;;;;4962049;28;20055;-63
2022/12/10 00:28:40;;;;;;;43.10;23.42;;;-1.90;99.90;;;;;;4964535;28;20078;-64
2022/12/10 00:31:11;;;;;;;39.10;22.77;;;-1.70;99.90;;;;;;4964410;28;20047;-62
2022/12/10 00:33:37;;;;;;;44.50;27.27;;;-1.80;99.90;;;;;;4962695;28;20061;-61
2022/12/10 00:36:05;;;;;;;43.85;24.30;;;-0.80;99.90;;;;;;4962817;28;20130;-61
2022/12/10 00:38:31;;;;;;;45.75;23.63;;;-2.00;99.90;;;;;;4963452;28;20179;-61
2022/12/10 00:40:57;;;;;;;43.85;24.17;;;-0.20;99.90;;;;;;4963442;28;20071;-64
2022/12/10 00:43:22;;;;;;;42.50;25.02;;;-1.60;99.90;;;;;;4963550;28;20042;-62
2022/12/10 00:45:48;;;;;;;44.70;26.67;;;-1.70;99.90;;;;;;4964174;28;20045;-63
2022/12/10 00:48:14;;;;;;;48.38;24.63;;;-1.70;99.90;;;;;;4963391;28;20090;-60
2022/12/10 00:50:39;;;;;;;39.42;22.73;;;-1.10;99.90;;;;;;4963506;28;20086;-63
2022/12/10 00:53:05;;;;;;;48.95;27.40;;;-1.90;99.90;;;;;;4963758;28;20090;-64
2022/12/10 00:55:30;;;;;;;47.95;28.58;;;-1.60;99.90;;;;;;4963959;28;20058;-63
2022/12/10 00:57:56;;;;;;;48.55;25.92;;;-1.70;99.90;;;;;;4964229;28;20061;-64
2022/12/10 01:00:22;;;;;;;45.78;28.17;;;-1.60;99.90;;;;;;4963481;28;20121;-61
2022/12/10 01:02:47;;;;;;;41.42;21.50;;;-1.70;99.90;;;;;;4963974;28;20047;-64
2022/12/10 01:05:13;;;;;;;51.90;27.85;;;-1.90;99.90;;;;;;4971680;28;20108;-59
2022/12/10 01:07:39;;;;;;;46.42;26.52;;;-1.70;99.90;;;;;;4965148;28;20078;-61
2022/12/10 01:10:04;;;;;;;44.28;25.23;;;-1.60;99.90;;;;;;4962636;28;20135;-64
2022/12/10 01:12:30;;;;;;;45.95;27.38;;;-1.80;99.90;;;;;;4963906;28;20081;-60
2022/12/10 01:14:56;;;;;;;48.28;28.20;;;0.20;99.90;;;;;;4963921;28;20390;-64
2022/12/10 01:17:21;;;;;;;48.38;27.98;;;-1.60;99.90;;;;;;4930910;28;20059;-60
2022/12/10 01:19:47;;;;;;;47.60;26.10;;;-1.60;99.90;;;;;;4962933;28;20054;-63
2022/12/10 01:22:13;;;;;;;49.60;25.40;;;-1.50;99.90;;;;;;4977818;28;20081;-61
2022/12/10 01:24:39;;;;;;;49.67;26.88;;;-1.50;99.90;;;;;;4964265;28;20049;-64
2022/12/10 01:27:04;;;;;;;48.20;27.30;;;0.00;99.90;;;;;;4962999;28;20058;-63
2022/12/10 01:29:30;;;;;;;51.53;28.50;;;-1.70;99.90;;;;;;4962796;28;20038;-61
2022/12/10 01:31:57;;;;;;;47.05;25.05;;;-1.50;99.90;;;;;;4963843;28;20044;-64
2022/12/10 01:34:26;;;;;;;47.80;25.70;;;-1.50;99.90;;;;;;4963466;28;20047;-60
2022/12/10 01:36:53;;;;;;;44.13;25.25;;;-0.70;99.90;;;;;;4962056;28;20734;-61
2022/12/10 01:39:22;;;;;;;46.05;25.38;;;-1.50;99.90;;;;;;4963571;28;20042;-61
2022/12/10 01:41:51;;;;;;;40.95;22.52;;;-1.50;99.90;;;;;;4963049;28;20409;-62
2022/12/10 01:44:17;;;;;;;42.42;21.45;;;-1.50;99.90;;;;;;4978254;28;20101;-59
2022/12/10 01:46:44;;;;;;;35.45;18.60;;;-1.40;99.90;;;;;;4962762;28;20039;-64
2022/12/10 01:49:22;;;;;;;46.53;25.08;;;-1.70;99.90;;;;;;4963401;28;20050;-62
2022/12/10 01:51:51;;;;;;;48.10;26.00;;;-0.40;99.90;;;;;;4962040;28;20038;-60
2022/12/10 01:54:32;;;;;;;46.58;25.83;;;-1.60;99.90;;;;;;4963300;28;20061;-61
2022/12/10 01:57:04;;;;;;;42.08;22.60;;;-1.80;99.90;;;;;;4961800;28;20169;-59
2022/12/10 01:59:32;;;;;;;40.03;22.65;;;-0.40;99.90;;;;;;4965473;28;20161;-60
2022/12/10 02:02:03;;;;;;;46.00;25.42;;;-1.60;99.90;;;;;;4967484;28;20101;-64
2022/12/10 02:04:52;;;;;;;39.78;22.40;;;-1.60;99.90;;;;;;4970326;28;20065;-60
2022/12/10 02:07:28;;;;;;;40.63;20.42;;;-1.60;99.90;;;;;;4977990;28;20086;-64
2022/12/10 02:10:14;;;;;;;48.60;26.17;;;-1.50;99.90;;;;;;4967438;28;20046;-64
2022/12/10 02:12:48;;;;;;;47.55;24.02;;;-1.60;99.90;;;;;;4966693;28;20050;-61
2022/12/10 02:15:16;;;;;;;51.50;26.33;;;-1.80;99.90;;;;;;4966963;28;20469;-62
2022/12/10 02:17:58;;;;;;;53.50;29.23;;;-0.40;99.90;;;;;;4966395;28;20126;-62
2022/12/10 02:20:32;;;;;;;43.03;22.52;;;-1.60;99.90;;;;;;4966097;28;20043;-63
2022/12/10 02:23:05;;;;;;;53.17;27.15;;;-1.70;99.90;;;;;;4966777;28;20054;-63
2022/12/10 02:25:57;;;;;;;56.38;30.55;;;-1.60;99.90;;;;;;4966440;28;20049;-61
2022/12/10 02:28:47;;;;;;;50.92;28.13;;;-1.70;99.90;;;;;;4964515;28;20058;-63
2022/12/10 02:31:18;;;;;;;48.78;25.08;;;-1.70;99.90;;;;;;4966683;28;20054;-62
2022/12/10 02:33:49;;;;;;;47.28;24.48;;;-1.80;99.90;;;;;;4966418;28;20039;-63
2022/12/10 02:36:16;;;;;;;50.35;26.58;;;-1.70;99.90;;;;;;4965924;28;20062;-64
2022/12/10 02:38:43;;;;;;;54.90;28.40;;;-1.50;99.90;;;;;;4966255;28;20043;-64
2022/12/10 02:41:15;;;;;;;46.05;25.35;;;-1.00;99.90;;;;;;4966728;28;20609;-61
2022/12/10 02:43:45;;;;;;;59.00;30.77;;;-1.10;99.90;;;;;;4966575;28;20078;-60
2022/12/10 02:46:11;;;;;;;59.50;30.75;;;-1.90;99.90;;;;;;4966229;28;20059;-64
2022/12/10 02:48:39;;;;;;;44.53;23.20;;;-2.60;99.90;;;;;;4966052;28;20042;-61
2022/12/10 02:51:05;;;;;;;53.60;28.33;;;-1.90;99.90;;;;;;4964933;28;20058;-60
2022/12/10 02:53:30;;;;;;;56.08;28.27;;;-1.80;99.90;;;;;;4965989;28;20046;-63
2022/12/10 02:56:13;;;;;;;55.50;31.52;;;-1.90;99.90;;;;;;4966722;28;20050;-60
2022/12/10 02:59:06;;;;;;;56.53;29.95;;;-0.90;99.90;;;;;;4964692;28;20046;-63
2022/12/10 03:01:57;;;;;;;48.28;24.30;;;-2.00;99.90;;;;;;4966146;28;20047;-60
2022/12/10 03:04:35;;;;;;;56.17;29.80;;;-1.40;99.90;;;;;;4969264;28;20433;-63
2022/12/10 03:07:08;;;;;;;51.10;26.50;;;-1.70;99.90;;;;;;4976988;28;20046;-64
2022/12/10 03:09:49;;;;;;;46.03;23.52;;;-1.70;99.90;;;;;;4985037;28;20100;-62
2022/12/10 03:12:29;;;;;;;58.50;30.27;;;-1.40;99.90;;;;;;4985854;28;20034;-63
2022/12/10 03:15:00;;;;;;;44.53;23.80;;;-1.80;99.90;;;;;;4985009;28;20050;-59
2022/12/10 03:17:30;;;;;;;57.58;29.67;;;-1.00;99.90;;;;;;4985402;28;20057;-58
2022/12/10 03:19:57;;;;;;;46.33;23.58;;;-1.80;99.90;;;;;;4984194;28;20058;-63
2022/12/10 03:22:23;;;;;;;64.03;32.17;;;-0.70;99.90;;;;;;4984971;28;20053;-64
2022/12/10 03:24:50;;;;;;;46.20;23.17;;;-1.90;99.90;;;;;;4984924;28;20621;-61
2022/12/10 03:27:19;;;;;;;50.05;26.52;;;-1.90;99.90;;;;;;4984308;28;20104;-61
2022/12/10 03:29:54;;;;;;;47.03;24.45;;;-1.70;99.90;;;;;;4982846;28;20089;-63
2022/12/10 03:32:24;;;;;;;;;;;-2.10;99.90;;;;;;4985003;28;20065;-62
2022/12/10 03:34:53;;;;;;;56.83;28.45;;;-2.10;99.90;;;;;;4983541;28;19921;-61
2022/12/10 03:37:20;;;;;;;58.50;30.98;;;-2.10;99.90;;;;;;4967492;28;20042;-61
2022/12/10 03:39:46;;;;;;;63.88;31.63;;;-1.90;99.90;;;;;;4983483;28;20118;-64
2022/12/10 03:42:12;;;;;;;43.78;21.27;;;-2.10;99.90;;;;;;4984995;28;20118;-61
2022/12/10 03:44:40;;;;;;;46.72;21.20;;;-0.10;99.90;;;;;;4983204;28;20156;-65
2022/12/10 03:47:10;;;;;;;57.90;27.92;;;-0.80;99.90;;;;;;4983982;28;20154;-64
2022/12/10 03:49:36;;;;;;;55.78;26.90;;;-2.00;99.90;;;;;;4982995;28;20038;-62
2022/12/10 03:52:03;;;;;;;47.72;22.50;;;-0.90;99.90;;;;;;4983890;28;20100;-65
2022/12/10 03:54:28;;;;;;;54.70;25.70;;;-1.70;99.90;;;;;;4983362;28;20042;-66
2022/12/10 03:56:54;;;;;;;58.78;30.38;;;-1.80;99.90;;;;;;4984536;28;20061;-66
2022/12/10 03:59:20;;;;;;;52.92;24.58;;;-1.60;99.90;;;;;;4983312;28;20405;-67
2022/12/10 04:01:45;;;;;;;66.88;32.65;;;-1.60;99.90;;;;;;4982678;28;20137;-64
2022/12/10 04:04:11;;;;;;;55.92;27.13;;;-1.30;99.90;;;;;;4978671;28;20053;-62
2022/12/10 04:06:41;;;;;;;58.10;31.75;;;-1.90;99.90;;;;;;4971391;28;20058;-61
2022/12/10 04:09:13;;;;;;;59.20;29.52;;;-2.00;99.90;;;;;;4964221;28;20141;-59
2022/12/10 04:11:39;;;;;;;56.70;29.65;;;-1.70;99.90;;;;;;4965513;28;20117;-64
2022/12/10 04:16:49;;;;;;;55.42;28.10;;;-1.90;99.90;;;;;;4964025;28;20110;-63
2022/12/10 04:19:16;;;;;;;64.05;32.58;;;-1.60;99.90;;;;;;4964495;28;20098;-62
2022/12/10 04:27:23;;;;;;;54.63;28.80;;;-1.30;99.90;;;;;;4964219;28;20096;-66
2022/12/10 04:29:49;;;;;;;48.33;22.77;;;-1.90;99.90;;;;;;4962558;28;20494;-65
2022/12/10 04:32:15;;;;;;;53.28;26.38;;;0.10;99.90;;;;;;4963338;28;20122;-66
2022/12/10 04:34:41;;;;;;;61.65;32.80;;;-2.00;99.90;;;;;;4963201;28;20126;-66
2022/12/10 04:37:07;;;;;;;46.50;23.17;;;0.20;99.90;;;;;;4964662;28;20145;-63
2022/12/10 04:39:33;;;;;;;58.25;28.05;;;-2.00;99.90;;;;;;4964313;28;20031;-66
2022/12/10 04:42:00;;;;;;;51.97;22.65;;;-2.00;99.90;;;;;;4964137;28;20077;-65
2022/12/10 04:44:26;;;;;;;50.40;24.52;;;-1.70;99.90;;;;;;4964508;28;20053;-67
2022/12/10 04:46:52;;;;;;;61.95;29.77;;;-0.90;99.90;;;;;;4963395;28;20047;-66
2022/12/10 04:49:18;;;;;;;48.72;20.50;;;-2.10;99.90;;;;;;4964775;28;20478;-64
2022/12/10 04:51:43;;;;;;;50.17;26.50;;;0.00;99.90;;;;;;4963252;28;20038;-66
2022/12/10 04:54:10;;;;;;;70.43;34.55;;;-2.00;99.90;;;;;;4964560;28;20576;-62
2022/12/10 04:56:36;;;;;;;66.40;33.35;;;-2.00;99.90;;;;;;4963551;28;20051;-66
2022/12/10 04:59:05;;;;;;;50.30;22.42;;;-0.30;99.90;;;;;;4964092;28;20122;-64
2022/12/10 05:01:31;;;;;;;48.20;23.05;;;-2.00;99.90;;;;;;4964170;28;20051;-64
2022/12/10 05:04:04;;;;;;;70.53;35.40;;;-1.60;99.90;;;;;;4965661;28;20039;-63
2022/12/10 05:06:31;;;;;;;68.38;34.97;;;-2.00;99.90;;;;;;4971145;28;20126;-66
2022/12/10 05:08:57;;;;;;;69.40;35.35;;;0.20;99.90;;;;;;4963568;28;20105;-63
2022/12/10 05:11:25;;;;;;;55.20;27.65;;;-1.30;99.90;;;;;;4964013;28;20466;-66
2022/12/10 05:13:51;;;;;;;71.75;36.08;;;-1.90;99.90;;;;;;4962491;28;20047;-63
2022/12/10 05:16:19;;;;;;;75.88;36.22;;;-1.90;99.90;;;;;;4963745;28;20157;-63
2022/12/10 05:18:44;;;;;;;65.55;32.70;;;-1.80;99.90;;;;;;4963796;28;20398;-66
2022/12/10 05:21:13;;;;;;;87.80;40.80;;;-2.00;99.90;;;;;;4961003;28;20035;-61
2022/12/10 05:23:41;;;;;;;73.70;35.65;;;-0.40;99.90;;;;;;4963136;28;20050;-64
2022/12/10 05:26:16;;;;;;;77.07;34.67;;;-2.10;99.90;;;;;;4963957;28;20051;-66
2022/12/10 05:28:45;;;;;;;76.28;37.15;;;-2.20;99.90;;;;;;4962878;28;20047;-66
2022/12/10 05:31:13;;;;;;;71.53;33.13;;;-2.20;99.90;;;;;;4961895;28;20180;-62
2022/12/10 05:33:39;;;;;;;70.03;33.55;;;-1.90;99.90;;;;;;4961599;28;20060;-63
2022/12/10 05:36:05;;;;;;;73.25;34.72;;;-2.20;99.90;;;;;;4961856;28;20043;-66
2022/12/10 05:38:32;;;;;;;77.57;37.63;;;-1.90;99.90;;;;;;4962869;28;20046;-63
2022/12/10 05:41:03;;;;;;;52.78;24.90;;;-1.90;99.90;;;;;;4963393;28;20078;-63
2022/12/10 05:43:28;;;;;;;57.70;26.58;;;-2.20;99.90;;;;;;4963456;28;20039;-64
2022/12/10 05:45:58;;;;;;;68.68;33.83;;;-1.90;99.90;;;;;;4961106;28;20097;-66
2022/12/10 05:48:23;;;;;;;64.75;32.63;;;-2.30;99.90;;;;;;4974955;28;20054;-65
2022/12/10 05:50:49;;;;;;;69.63;32.22;;;-2.00;99.90;;;;;;4982050;28;20078;-66
2022/12/10 05:53:17;;;;;;;78.78;38.50;;;-2.20;99.90;;;;;;4982514;28;20038;-63
2022/12/10 05:55:42;;;;;;;82.70;37.15;;;-2.10;99.90;;;;;;4981913;28;20055;-65
2022/12/10 05:58:08;;;;;;;74.13;35.85;;;-2.10;99.90;;;;;;4982680;28;20050;-64
2022/12/10 06:00:34;;;;;;;71.53;33.85;;;-2.20;99.90;;;;;;4983053;28;20065;-62
2022/12/10 06:03:00;;;;;;;73.70;35.55;;;-2.30;99.90;;;;;;4982067;28;20177;-62
2022/12/10 06:05:25;;;;;;;83.07;41.45;;;-1.80;99.90;;;;;;4975396;28;20669;-67
2022/12/10 06:07:51;;;;;;;86.70;38.20;;;-1.10;99.90;;;;;;4962551;28;20047;-65
2022/12/10 06:10:17;;;;;;;72.85;35.08;;;-2.10;99.90;;;;;;4962989;28;20051;-65
2022/12/10 06:12:42;;;;;;;75.60;34.65;;;-2.20;99.90;;;;;;4962372;28;20520;-67
2022/12/10 06:15:08;;;;;;;70.28;32.70;;;-2.30;99.90;;;;;;4962780;28;20055;-64
2022/12/10 06:17:36;;;;;;;63.45;27.40;;;-2.40;99.90;;;;;;4963173;28;20478;-65
2022/12/10 06:20:01;;;;;;;79.75;38.17;;;-2.20;99.90;;;;;;4962365;28;20236;-66
2022/12/10 06:22:27;;;;;;;79.65;37.35;;;-2.40;99.90;;;;;;4962674;28;20502;-65
2022/12/10 06:24:53;;;;;;;87.45;41.55;;;-2.40;99.90;;;;;;4962674;28;20043;-64
2022/12/10 06:27:18;;;;;;;73.82;34.83;;;-2.20;99.90;;;;;;4962922;28;20057;-63
2022/12/10 06:29:44;;;;;;;79.07;38.63;;;-1.10;99.90;;;;;;4963136;28;20050;-63
2022/12/10 06:32:10;;;;;;;77.22;35.30;;;-0.50;99.90;;;;;;4962671;28;20054;-64
2022/12/10 06:34:35;;;;;;;68.15;31.52;;;-0.20;99.90;;;;;;4962356;28;20041;-67
2022/12/10 06:37:01;;;;;;;73.05;34.00;;;-2.20;99.90;;;;;;4962925;28;20081;-65
2022/12/10 06:39:27;;;;;;;64.57;30.20;;;-2.40;99.90;;;;;;4961383;28;20144;-66
2022/12/10 06:41:52;;;;;;;85.80;39.45;;;-1.50;99.90;;;;;;4962166;28;20043;-62
2022/12/10 06:44:18;;;;;;;80.88;38.75;;;-1.70;99.90;;;;;;4964216;28;20043;-66
2022/12/10 06:46:44;;;;;;;71.15;29.70;;;-0.30;99.90;;;;;;4966403;28;20490;-67
2022/12/10 06:49:09;;;;;;;84.80;38.08;;;-2.40;99.90;;;;;;4965394;28;20406;-62
2022/12/10 06:51:35;;;;;;;66.25;31.33;;;-2.70;99.90;;;;;;4964863;28;20053;-67
2022/12/10 06:54:01;;;;;;;73.63;31.65;;;-2.40;99.90;;;;;;4966600;28;20053;-66
2022/12/10 06:56:26;;;;;;;82.30;35.60;;;-1.50;99.90;;;;;;4966985;28;20038;-66
2022/12/10 06:58:52;;;;;;;70.03;31.27;;;-2.30;99.90;;;;;;4965683;28;20047;-63
2022/12/10 07:01:20;;;;;;;59.97;26.40;;;-1.80;99.90;;;;;;4967075;28;20042;-65
2022/12/10 07:03:51;;;;;;;65.63;30.70;;;-2.60;99.90;;;;;;4967297;28;20093;-63
2022/12/10 07:06:19;;;;;;;82.60;37.65;;;-2.20;99.90;;;;;;4974441;28;20767;-64
2022/12/10 07:08:45;;;;;;;64.22;29.00;;;-2.60;99.90;;;;;;4966779;28;20433;-64
2022/12/10 07:11:13;;;;;;;81.32;36.70;;;-2.50;99.90;;;;;;4965238;28;20047;-66
2022/12/10 07:13:39;;;;;;;71.78;30.77;;;-0.20;99.90;;;;;;4965876;28;20038;-66
2022/12/10 07:16:23;;;;;;;64.40;29.48;;;-2.50;99.90;;;;;;4965045;28;20067;-66
2022/12/10 07:18:51;;;;;;;65.85;28.35;;;-2.20;99.90;;;;;;4965982;28;20094;-63
2022/12/10 07:21:35;;;;;;;67.15;29.30;;;-0.30;99.90;;;;;;4965116;28;20074;-61
2022/12/10 07:24:04;;;;;;;56.00;24.65;;;-2.50;99.90;;;;;;4965563;28;20078;-66
2022/12/10 07:26:32;;;;;;;63.88;30.20;;;-2.30;99.90;;;;;;4966422;28;20426;-63
2022/12/10 07:29:02;;;;;;;69.38;30.60;;;-2.30;99.90;;;;;;4985020;28;20135;-64
2022/12/10 07:31:28;;;;;;;60.55;27.67;;;-2.10;99.90;;;;;;4983886;28;20046;-64
2022/12/10 07:33:56;;;;;;;62.20;26.75;;;-0.30;99.90;;;;;;4983387;28;20121;-65
2022/12/10 07:36:22;;;;;;;72.22;30.67;;;-2.20;99.90;;;;;;4984539;28;20733;-64
2022/12/10 07:38:48;;;;;;;73.15;30.77;;;-2.10;99.90;;;;;;4983806;28;20043;-64
2022/12/10 07:41:15;;;;;;;66.05;30.38;;;-2.30;99.90;;;;;;4985197;28;20050;-62
2022/12/10 07:43:43;;;;;;;79.63;37.28;;;-1.00;99.90;;;;;;4983507;28;20038;-66
2022/12/10 07:46:12;;;;;;;77.05;31.08;;;-1.50;99.90;;;;;;4983575;28;20046;-66
2022/12/10 07:48:39;;;;;;;62.83;29.52;;;-2.20;99.90;;;;;;4984463;28;20046;-63
2022/12/10 07:51:05;;;;;;;69.40;31.23;;;-2.00;99.90;;;;;;4984244;28;20493;-62
2022/12/10 07:53:31;;;;;;;82.97;37.03;;;-2.30;99.90;;;;;;4983163;28;20046;-63
2022/12/10 07:55:57;;;;;;;71.97;30.15;;;-1.50;99.90;;;;;;4983595;28;20041;-62
2022/12/10 07:58:23;;;;;;;91.90;36.40;;;-0.70;99.90;;;;;;4984394;28;20046;-64
2022/12/10 08:00:49;;;;;;;77.50;36.33;;;-2.30;99.90;;;;;;4984988;28;20046;-63
2022/12/10 08:03:14;;;;;;;64.20;29.25;;;-2.00;99.90;;;;;;4983822;28;20518;-64
2022/12/10 08:05:40;;;;;;;70.65;30.17;;;-2.20;99.90;;;;;;4976016;28;20654;-63
2022/12/10 08:08:06;;;;;;;62.13;29.13;;;-2.00;99.90;;;;;;4965198;28;20466;-63
2022/12/10 08:10:36;;;;;;;64.45;29.88;;;-2.30;99.90;;;;;;4964613;28;20046;-62
2022/12/10 08:13:02;;;;;;;83.25;36.03;;;-2.00;99.90;;;;;;4964008;28;20581;-59
2022/12/10 08:15:28;;;;;;;65.55;30.75;;;-2.20;99.90;;;;;;4964537;28;20086;-61
2022/12/10 08:17:54;;;;;;;82.03;37.08;;;-0.40;99.90;;;;;;4964866;28;20281;-61
2022/12/10 08:20:21;;;;;;;73.93;32.50;;;-2.10;99.90;;;;;;4964827;28;20165;-63
2022/12/10 08:22:46;;;;;;;70.00;32.70;;;-2.00;99.90;;;;;;4964630;28;20494;-64
2022/12/10 08:25:12;;;;;;;63.30;27.20;;;-1.90;99.90;;;;;;4964697;28;20072;-62
2022/12/10 08:27:38;;;;;;;85.35;37.60;;;-2.10;99.90;;;;;;4964725;28;20047;-63
2022/12/10 08:30:04;;;;;;;62.80;29.75;;;-2.00;99.90;;;;;;4963720;28;20121;-61
2022/12/10 08:32:30;;;;;;;79.43;36.35;;;-2.00;99.90;;;;;;4964777;28;20181;-63
2022/12/10 08:34:55;;;;;;;66.75;28.75;;;-1.90;99.90;;;;;;4963719;28;20129;-59
2022/12/10 08:37:22;;;;;;;84.88;38.47;;;-1.90;99.90;;;;;;4965275;28;20444;-60
2022/12/10 08:39:47;;;;;;;68.95;32.05;;;-1.80;99.90;;;;;;4965864;28;20118;-60
2022/12/10 08:42:13;;;;;;;80.30;36.67;;;-1.90;99.90;;;;;;4984114;28;20126;-63
2022/12/10 08:44:38;;;;;;;80.25;38.35;;;-1.80;99.90;;;;;;4982123;28;20053;-63
2022/12/10 08:47:05;;;;;;;71.82;33.63;;;-1.80;99.90;;;;;;4982816;28;20428;-60
2022/12/10 08:49:30;;;;;;;52.13;23.02;;;-1.80;99.90;;;;;;4982147;28;20045;-64
2022/12/10 08:51:56;;;;;;;75.30;34.60;;;-1.70;99.90;;;;;;4983288;28;20125;-59
2022/12/10 08:54:21;;;;;;;59.10;26.27;;;-1.50;99.90;;;;;;4982978;28;20050;-63
2022/12/10 08:56:47;;;;;;;80.72;37.78;;;-1.00;99.90;;;;;;4982234;28;20248;-61
2022/12/10 08:59:13;;;;;;;79.70;35.08;;;-1.80;99.90;;;;;;4983354;28;20050;-63
2022/12/10 09:01:38;;;;;;;62.60;28.25;;;0.50;99.90;;;;;;4983179;28;20034;-63
2022/12/10 09:04:04;;;;;;;65.90;30.55;;;-1.30;99.90;;;;;;4980061;28;20046;-59
2022/12/10 09:06:30;;;;;;;85.35;40.50;;;-1.50;99.90;;;;;;4971866;28;20190;-63
2022/12/10 09:08:56;;;;;;;81.45;40.50;;;-1.20;99.90;;;;;;4963379;28;20050;-65
2022/12/10 09:11:30;;;;;;;75.75;34.28;;;-1.40;99.90;;;;;;4964462;28;20042;-65
2022/12/10 09:13:56;;;;;;;67.68;32.78;;;-0.90;99.90;;;;;;4964097;28;20082;-64
2022/12/10 09:16:32;;;;;;;68.25;33.38;;;-0.50;99.90;;;;;;4962970;28;20100;-63
2022/12/10 09:18:58;;;;;;;76.13;37.15;;;-1.20;99.90;;;;;;4963305;28;20047;-65
2022/12/10 09:21:24;;;;;;;87.70;42.33;;;-0.60;99.90;;;;;;4964098;28;20051;-62
2022/12/10 09:23:54;;;;;;;88.55;41.75;;;0.00;99.90;;;;;;4962857;28;20054;-67
2022/12/10 09:26:20;;;;;;;81.90;42.42;;;-0.30;99.90;;;;;;4962865;28;20083;-63
2022/12/10 09:28:47;;;;;;;72.28;33.63;;;-0.90;99.90;;;;;;4963608;28;20059;-65
2022/12/10 09:31:14;;;;;;;71.78;38.10;;;-0.80;99.90;;;;;;4961786;28;20179;-62
2022/12/10 09:33:40;;;;;;;66.43;35.58;;;-0.50;99.90;;;;;;4961768;28;20054;-63
2022/12/10 09:36:07;;;;;;;68.00;38.92;;;0.30;99.90;;;;;;4963642;28;20039;-62
2022/12/10 09:38:41;;;;;;;58.88;31.80;;;0.30;99.90;;;;;;4962742;28;20516;-63
2022/12/10 09:41:45;;;;;;;61.10;33.65;;;0.40;99.90;;;;;;4961025;28;20050;-63
2022/12/10 09:44:27;;;;;;;57.90;30.88;;;0.60;99.90;;;;;;4962459;28;20054;-62
2022/12/10 09:46:56;;;;;;;51.80;28.02;;;0.50;99.90;;;;;;4963514;28;20050;-63
2022/12/10 09:49:31;;;;;;;57.83;32.03;;;0.80;99.90;;;;;;4962545;28;20469;-62
2022/12/10 09:51:58;;;;;;;;;;;0.40;99.90;;;;;;4961155;28;20240;-61
2022/12/10 09:54:32;;;;;;;60.45;34.20;;;1.10;99.90;;;;;;4963460;28;20340;-65
2022/12/10 09:57:00;;;;;;;56.58;29.40;;;1.10;99.90;;;;;;4961592;28;20043;-62
2022/12/10 09:59:40;;;;;;;61.30;36.08;;;0.90;99.90;;;;;;4962465;28;20047;-62
2022/12/10 10:02:21;;;;;;;62.00;32.15;;;1.30;99.90;;;;;;4962028;28;20122;-65
2022/12/10 10:04:49;;;;;;;56.85;31.42;;;1.20;99.90;;;;;;4967024;28;20242;-60
2022/12/10 10:07:24;;;;;;;55.65;29.50;;;1.70;99.90;;;;;;4967736;28;20047;-64
2022/12/10 10:09:55;;;;;;;54.17;27.45;;;1.10;99.90;;;;;;4960253;28;20425;-63
2022/12/10 10:12:21;;;;;;;61.60;34.95;;;1.10;99.90;;;;;;4962114;28;20038;-65
2022/12/10 10:14:47;;;;;;;55.30;27.95;;;1.50;99.90;;;;;;4962654;28;20521;-64
2022/12/10 10:17:20;;;;;;;63.40;34.97;;;0.90;99.90;;;;;;4961367;28;20486;-63
2022/12/10 10:19:45;;;;;;;60.72;33.45;;;0.90;99.90;;;;;;4963799;28;20057;-66
2022/12/10 10:22:12;;;;;;;67.15;38.08;;;;;;;;;;4967140;28;20437;-63
2022/12/10 10:24:41;;;;;;;61.83;33.88;;;0.00;99.90;;;;;;4966761;28;20509;-64
2022/12/10 10:27:19;;;;;;;76.10;42.95;;;0.10;99.90;;;;;;4965988;28;20053;-66
2022/12/10 10:29:47;;;;;;;67.60;38.42;;;-0.10;99.90;;;;;;4967291;28;20047;-65
2022/12/10 10:32:15;;;;;;;64.35;32.70;;;1.00;99.90;;;;;;4966647;28;20047;-65
2022/12/10 10:34:42;;;;;;;70.13;40.47;;;0.30;99.90;;;;;;4965518;28;20449;-62
2022/12/10 10:37:23;;;;;;;66.13;35.25;;;0.20;99.90;;;;;;4966971;28;20047;-65
2022/12/10 10:39:50;;;;;;;74.38;40.33;;;-0.20;99.90;;;;;;4966670;28;20089;-62
2022/12/10 10:42:45;;;;;;;69.03;37.95;;;0.60;99.90;;;;;;4966042;28;20105;-65
2022/12/10 10:45:39;;;;;;;66.37;34.90;;;-0.30;99.90;;;;;;4974073;28;20062;-63
2022/12/10 10:48:22;;;;;;;59.40;33.22;;;-0.30;99.90;;;;;;4966669;28;20406;-61
2022/12/10 10:51:15;;;;;;;68.85;39.97;;;-0.10;99.90;;;;;;4965515;28;20466;-63
2022/12/10 10:53:45;;;;;;;64.28;37.28;;;-0.30;99.90;;;;;;4971170;28;20101;-63
2022/12/10 10:56:20;;;;;;;68.25;35.40;;;-0.20;99.90;;;;;;4966004;28;20043;-64
2022/12/10 10:59:13;;;;;;;69.03;37.38;;;-0.20;99.90;;;;;;4966812;28;20715;-62
2022/12/10 11:01:53;;;;;;;65.25;34.60;;;-0.10;99.90;;;;;;4965588;28;20066;-63
2022/12/10 11:04:35;;;;;;;67.85;38.95;;;-0.20;99.90;;;;;;4968316;28;21171;-65
2022/12/10 11:07:04;;;;;;;69.03;40.85;;;1.00;99.90;;;;;;4978384;28;20455;-65
2022/12/10 11:09:33;;;;;;;60.22;32.65;;;1.20;99.90;;;;;;4984306;28;20058;-61
2022/12/10 11:12:05;;;;;;;57.08;24.60;;;1.70;99.90;;;;;;4986361;28;20096;-62
2022/12/10 11:14:41;;;;;;;64.78;33.42;;;0.80;99.90;;;;;;4985861;28;20125;-64
2022/12/10 11:17:10;;;;;;;56.95;29.20;;;0.60;99.90;;;;;;4985505;28;20061;-64
2022/12/10 11:19:42;;;;;;;71.18;36.15;;;0.20;99.90;;;;;;4984737;28;20163;-60
2022/12/10 11:22:22;;;;;;;60.08;34.63;;;0.00;99.90;;;;;;4986229;28;20046;-64
2022/12/10 11:24:48;;;;;;;61.08;31.60;;;0.40;99.90;;;;;;4985888;28;20425;-59
2022/12/10 11:27:22;;;;;;;49.72;25.35;;;0.90;99.90;;;;;;4984616;28;20038;-63
2022/12/10 11:30:04;;;;;;;62.87;36.77;;;0.40;99.90;;;;;;4985144;28;20186;-66
2022/12/10 11:32:57;;;;;;;67.22;36.72;;;0.60;99.90;;;;;;4984845;28;20674;-64
2022/12/10 11:35:33;;;;;;;63.85;31.38;;;0.70;99.90;;;;;;4984846;28;20038;-63
2022/12/10 11:38:08;;;;;;;66.40;37.78;;;0.30;99.90;;;;;;4983604;28;20074;-64
2022/12/10 11:40:48;;;;;;;67.88;38.78;;;0.30;99.90;;;;;;4977967;28;20147;-64
2022/12/10 11:43:40;;;;;;;74.97;40.47;;;0.00;99.90;;;;;;4984088;28;20061;-62
2022/12/10 11:46:41;;;;;;;69.47;39.22;;;0.20;99.90;;;;;;4984353;28;20130;-66
2022/12/10 11:49:23;;;;;;;60.40;30.10;;;0.40;99.90;;;;;;4983772;28;20104;-66
2022/12/10 11:52:10;;;;;;;56.85;30.92;;;-0.10;99.90;;;;;;4984082;28;20053;-62
2022/12/10 11:55:07;;;;;;;74.47;40.22;;;-0.20;99.90;;;;;;4984779;28;20129;-61
2022/12/10 11:57:51;;;;;;;68.60;36.97;;;-0.30;99.90;;;;;;4984921;28;20100;-62
2022/12/10 12:00:23;;;;;;;75.73;39.93;;;0.00;99.90;;;;;;4984289;28;20069;-63
2022/12/10 12:03:27;;;;;;;78.15;41.58;;;0.60;99.90;;;;;;4983406;28;20653;-64
2022/12/10 12:06:32;;;;;;;72.35;40.60;;;-0.20;99.90;;;;;;4972236;28;20046;-61
2022/12/10 12:09:10;;;;;;;79.65;43.67;;;-0.20;99.90;;;;;;4985748;28;20421;-64
2022/12/10 12:11:54;;;;;;;80.78;43.25;;;0.00;99.90;;;;;;4984554;28;20185;-66
2022/12/10 12:14:27;;;;;;;79.07;41.70;;;0.00;99.90;;;;;;4984021;28;20128;-65
2022/12/10 12:17:05;;;;;;;78.18;41.78;;;0.10;99.90;;;;;;4983246;28;20054;-61
2022/12/10 12:19:39;;;;;;;79.30;42.00;;;-0.30;99.90;;;;;;4981713;28;20097;-65
2022/12/10 12:22:25;;;;;;;86.03;47.35;;;-0.10;99.90;;;;;;4983188;28;20050;-66
2022/12/10 12:25:14;;;;;;;83.68;43.90;;;-0.20;99.90;;;;;;4983742;28;20533;-64
2022/12/10 12:27:48;;;;;;;81.00;42.58;;;-0.20;99.90;;;;;;4985031;28;20101;-64
2022/12/10 12:30:15;;;;;;;91.45;47.13;;;0.10;99.90;;;;;;4984318;28;20078;-58
2022/12/10 12:33:06;;;;;;;86.30;46.97;;;0.10;99.90;;;;;;4982363;28;20046;-67
2022/12/10 12:35:42;;;;;;;91.85;49.40;;;-0.20;99.90;;;;;;4983683;28;20263;-63
2022/12/10 12:38:25;;;;;;;81.20;44.33;;;-0.10;99.90;;;;;;4982894;28;20045;-61
2022/12/10 12:41:14;;;;;;;75.55;40.53;;;0.50;99.90;;;;;;4982644;28;20454;-65
2022/12/10 12:43:52;;;;;;;80.22;43.58;;;-0.20;99.90;;;;;;4964949;28;20048;-65
2022/12/10 12:46:45;;;;;;;82.55;43.33;;;-0.20;99.90;;;;;;4983449;28;20049;-69
2022/12/10 12:49:35;;;;;;;88.03;46.88;;;-0.10;99.90;;;;;;4983918;28;20052;-65
2022/12/10 12:52:24;;;;;;;88.57;46.90;;;-0.20;99.90;;;;;;4983589;28;20497;-66
2022/12/10 12:54:50;;;;;;;76.65;40.38;;;0.00;99.90;;;;;;4981795;28;20038;-65
2022/12/10 12:57:29;;;;;;;87.97;44.70;;;0.60;99.90;;;;;;4982149;28;20050;-60